sensor_id;sensor_type;location;lat;lon;timestamp;temperature;humidity
65408;DHT22;52017;51.230;-2.322;2022-09-09T00:00:12;16.70;83.10
65408;DHT22;52017;51.230;-2.322;2022-09-09T00:04:09;16.70;83.60
65408;DHT22;52017;51.230;-2.322;2022-09-09T00:07:55;16.70;83.80
65408;DHT22;52017;51.230;-2.322;2022-09-09T00:11:43;16.70;83.30
65408;DHT22;52017;51.230;-2.322;2022-09-09T00:19:37;16.80;83.60
65408;DHT22;52017;51.230;-2.322;2022-09-09T00:23:28;16.80;83.90
65408;DHT22;52017;51.230;-2.322;2022-09-09T00:27:40;16.80;83.80
65408;DHT22;52017;51.230;-2.322;2022-09-09T00:31:24;16.80;83.90
65408;DHT22;52017;51.230;-2.322;2022-09-09T00:39:02;16.80;83.60
65408;DHT22;52017;51.230;-2.322;2022-09-09T00:42:44;16.80;84.10
65408;DHT22;52017;51.230;-2.322;2022-09-09T00:50:49;16.90;84.40
65408;DHT22;52017;51.230;-2.322;2022-09-09T00:54:58;16.90;84.20
65408;DHT22;52017;51.230;-2.322;2022-09-09T01:06:35;16.90;83.60
65408;DHT22;52017;51.230;-2.322;2022-09-09T01:18:23;16.70;84.40
65408;DHT22;52017;51.230;-2.322;2022-09-09T01:26:26;16.60;84.20
65408;DHT22;52017;51.230;-2.322;2022-09-09T01:30:15;16.50;84.50
65408;DHT22;52017;51.230;-2.322;2022-09-09T01:33:58;16.50;83.90
65408;DHT22;52017;51.230;-2.322;2022-09-09T01:37:40;16.40;83.80
65408;DHT22;52017;51.230;-2.322;2022-09-09T01:41:22;16.40;83.90
65408;DHT22;52017;51.230;-2.322;2022-09-09T01:45:05;16.40;83.90
65408;DHT22;52017;51.230;-2.322;2022-09-09T01:48:48;16.40;83.90
65408;DHT22;52017;51.230;-2.322;2022-09-09T01:52:31;16.30;83.90
65408;DHT22;52017;51.230;-2.322;2022-09-09T02:00:21;16.20;84.20
65408;DHT22;52017;51.230;-2.322;2022-09-09T02:04:11;16.30;83.90
65408;DHT22;52017;51.230;-2.322;2022-09-09T02:08:03;16.20;84.10
65408;DHT22;52017;51.230;-2.322;2022-09-09T02:11:47;16.20;84.10
65408;DHT22;52017;51.230;-2.322;2022-09-09T02:15:56;16.20;83.90
65408;DHT22;52017;51.230;-2.322;2022-09-09T02:19:45;16.10;84.60
65408;DHT22;52017;51.230;-2.322;2022-09-09T02:23:31;16.10;84.10
65408;DHT22;52017;51.230;-2.322;2022-09-09T02:27:14;16.00;84.00
65408;DHT22;52017;51.230;-2.322;2022-09-09T02:30:58;16.00;84.10
65408;DHT22;52017;51.230;-2.322;2022-09-09T02:34:43;16.00;84.10
65408;DHT22;52017;51.230;-2.322;2022-09-09T02:38:29;16.00;84.10
65408;DHT22;52017;51.230;-2.322;2022-09-09T02:42:13;16.00;84.30
65408;DHT22;52017;51.230;-2.322;2022-09-09T02:46:04;16.00;84.30
65408;DHT22;52017;51.230;-2.322;2022-09-09T02:57:34;16.00;84.30
65408;DHT22;52017;51.230;-2.322;2022-09-09T03:01:17;16.00;84.30
65408;DHT22;52017;51.230;-2.322;2022-09-09T03:04:59;16.00;84.30
65408;DHT22;52017;51.230;-2.322;2022-09-09T03:08:41;16.00;84.40
65408;DHT22;52017;51.230;-2.322;2022-09-09T03:12:30;16.00;84.40
65408;DHT22;52017;51.230;-2.322;2022-09-09T03:16:12;16.00;84.40
65408;DHT22;52017;51.230;-2.322;2022-09-09T03:19:54;16.00;84.40
65408;DHT22;52017;51.230;-2.322;2022-09-09T03:23:37;16.00;84.50
65408;DHT22;52017;51.230;-2.322;2022-09-09T03:27:19;16.00;84.50
65408;DHT22;52017;51.230;-2.322;2022-09-09T03:31:03;16.10;84.50
65408;DHT22;52017;51.230;-2.322;2022-09-09T03:34:46;16.10;84.50
65408;DHT22;52017;51.230;-2.322;2022-09-09T03:38:31;16.20;84.50
65408;DHT22;52017;51.230;-2.322;2022-09-09T03:42:14;16.10;84.50
65408;DHT22;52017;51.230;-2.322;2022-09-09T03:46:00;16.10;84.50
65408;DHT22;52017;51.230;-2.322;2022-09-09T03:49:42;16.20;84.50
65408;DHT22;52017;51.230;-2.322;2022-09-09T03:53:25;16.10;84.60
65408;DHT22;52017;51.230;-2.322;2022-09-09T03:57:07;16.20;84.60
65408;DHT22;52017;51.230;-2.322;2022-09-09T04:01:06;16.20;84.60
65408;DHT22;52017;51.230;-2.322;2022-09-09T04:04:48;16.30;84.80
65408;DHT22;52017;51.230;-2.322;2022-09-09T04:08:30;16.30;84.50
65408;DHT22;52017;51.230;-2.322;2022-09-09T04:12:17;16.30;84.50
65408;DHT22;52017;51.230;-2.322;2022-09-09T04:16:01;16.30;84.40
65408;DHT22;52017;51.230;-2.322;2022-09-09T04:19:43;16.20;84.40
65408;DHT22;52017;51.230;-2.322;2022-09-09T04:23:26;16.20;84.40
65408;DHT22;52017;51.230;-2.322;2022-09-09T04:27:10;16.20;84.40
65408;DHT22;52017;51.230;-2.322;2022-09-09T04:30:52;16.20;84.40
65408;DHT22;52017;51.230;-2.322;2022-09-09T04:34:34;16.10;84.40
65408;DHT22;52017;51.230;-2.322;2022-09-09T04:38:17;16.10;84.40
65408;DHT22;52017;51.230;-2.322;2022-09-09T04:41:58;16.10;84.40
65408;DHT22;52017;51.230;-2.322;2022-09-09T04:45:41;16.10;84.40
65408;DHT22;52017;51.230;-2.322;2022-09-09T04:49:23;16.10;84.40
65408;DHT22;52017;51.230;-2.322;2022-09-09T04:53:05;16.10;84.30
65408;DHT22;52017;51.230;-2.322;2022-09-09T04:56:50;16.10;84.20
65408;DHT22;52017;51.230;-2.322;2022-09-09T05:00:33;16.00;84.20
65408;DHT22;52017;51.230;-2.322;2022-09-09T05:04:15;16.00;84.10
65408;DHT22;52017;51.230;-2.322;2022-09-09T05:08:05;16.00;84.00
65408;DHT22;52017;51.230;-2.322;2022-09-09T05:11:47;16.00;84.00
65408;DHT22;52017;51.230;-2.322;2022-09-09T05:15:29;15.90;83.90
65408;DHT22;52017;51.230;-2.322;2022-09-09T05:19:11;15.90;83.90
65408;DHT22;52017;51.230;-2.322;2022-09-09T05:22:54;15.90;83.90
65408;DHT22;52017;51.230;-2.322;2022-09-09T05:26:36;15.90;83.90
65408;DHT22;52017;51.230;-2.322;2022-09-09T05:30:18;15.90;83.70
65408;DHT22;52017;51.230;-2.322;2022-09-09T05:34:00;16.00;83.60
65408;DHT22;52017;51.230;-2.322;2022-09-09T05:37:42;16.00;83.50
65408;DHT22;52017;51.230;-2.322;2022-09-09T05:41:24;16.00;83.50
65408;DHT22;52017;51.230;-2.322;2022-09-09T05:45:07;16.00;83.40
65408;DHT22;52017;51.230;-2.322;2022-09-09T05:48:51;16.00;83.30
65408;DHT22;52017;51.230;-2.322;2022-09-09T05:52:33;16.00;83.30
65408;DHT22;52017;51.230;-2.322;2022-09-09T05:56:17;16.00;83.10
65408;DHT22;52017;51.230;-2.322;2022-09-09T05:59:59;15.90;82.90
65408;DHT22;52017;51.230;-2.322;2022-09-09T06:03:43;15.90;82.90
65408;DHT22;52017;51.230;-2.322;2022-09-09T06:07:25;15.80;82.80
65408;DHT22;52017;51.230;-2.322;2022-09-09T06:11:21;15.80;82.80
65408;DHT22;52017;51.230;-2.322;2022-09-09T06:15:04;15.80;82.60
65408;DHT22;52017;51.230;-2.322;2022-09-09T06:18:46;15.80;82.70
65408;DHT22;52017;51.230;-2.322;2022-09-09T06:22:30;15.80;82.80
65408;DHT22;52017;51.230;-2.322;2022-09-09T06:26:17;15.80;82.80
65408;DHT22;52017;51.230;-2.322;2022-09-09T06:29:59;15.80;82.90
65408;DHT22;52017;51.230;-2.322;2022-09-09T06:33:41;16.00;83.60
65408;DHT22;52017;51.230;-2.322;2022-09-09T06:37:23;16.30;83.80
65408;DHT22;52017;51.230;-2.322;2022-09-09T06:41:05;16.80;83.50
65408;DHT22;52017;51.230;-2.322;2022-09-09T06:44:47;17.00;82.70
65408;DHT22;52017;51.230;-2.322;2022-09-09T06:48:30;17.10;82.60
65408;DHT22;52017;51.230;-2.322;2022-09-09T06:52:12;17.50;82.50
65408;DHT22;52017;51.230;-2.322;2022-09-09T06:55:54;17.70;81.80
65408;DHT22;52017;51.230;-2.322;2022-09-09T06:59:36;17.80;81.10
65408;DHT22;52017;51.230;-2.322;2022-09-09T07:03:18;18.00;81.10
65408;DHT22;52017;51.230;-2.322;2022-09-09T07:07:00;18.30;81.30
65408;DHT22;52017;51.230;-2.322;2022-09-09T07:10:42;18.70;80.90
65408;DHT22;52017;51.230;-2.322;2022-09-09T07:14:26;19.00;80.30
65408;DHT22;52017;51.230;-2.322;2022-09-09T07:18:08;19.30;79.50
65408;DHT22;52017;51.230;-2.322;2022-09-09T07:21:51;19.40;78.40
65408;DHT22;52017;51.230;-2.322;2022-09-09T07:25:34;19.30;78.00
65408;DHT22;52017;51.230;-2.322;2022-09-09T07:29:15;19.30;78.20
65408;DHT22;52017;51.230;-2.322;2022-09-09T07:33:01;19.60;78.00
65408;DHT22;52017;51.230;-2.322;2022-09-09T07:36:44;19.90;77.40
65408;DHT22;52017;51.230;-2.322;2022-09-09T07:40:27;20.40;76.60
65408;DHT22;52017;51.230;-2.322;2022-09-09T07:44:22;21.10;75.70
65408;DHT22;52017;51.230;-2.322;2022-09-09T07:48:05;21.80;71.50
65408;DHT22;52017;51.230;-2.322;2022-09-09T07:51:48;22.50;72.80
65408;DHT22;52017;51.230;-2.322;2022-09-09T07:55:31;23.10;71.40
65408;DHT22;52017;51.230;-2.322;2022-09-09T07:59:13;23.70;69.80
65408;DHT22;52017;51.230;-2.322;2022-09-09T08:02:55;24.10;68.50
65408;DHT22;52017;51.230;-2.322;2022-09-09T08:06:39;24.00;67.10
65408;DHT22;52017;51.230;-2.322;2022-09-09T08:10:21;23.60;65.80
65408;DHT22;52017;51.230;-2.322;2022-09-09T08:14:04;23.00;66.10
65408;DHT22;52017;51.230;-2.322;2022-09-09T08:17:45;22.50;65.60
65408;DHT22;52017;51.230;-2.322;2022-09-09T08:21:29;22.10;66.20
65408;DHT22;52017;51.230;-2.322;2022-09-09T08:25:12;21.80;66.20
65408;DHT22;52017;51.230;-2.322;2022-09-09T08:28:56;21.60;66.20
65408;DHT22;52017;51.230;-2.322;2022-09-09T08:32:38;21.60;66.50
65408;DHT22;52017;51.230;-2.322;2022-09-09T08:36:28;21.70;66.20
65408;DHT22;52017;51.230;-2.322;2022-09-09T08:40:22;21.70;65.70
65408;DHT22;52017;51.230;-2.322;2022-09-09T08:52:26;21.40;63.50
65408;DHT22;52017;51.230;-2.322;2022-09-09T08:56:19;21.40;63.20
65408;DHT22;52017;51.230;-2.322;2022-09-09T09:00:05;21.40;64.30
65408;DHT22;52017;51.230;-2.322;2022-09-09T09:11:49;21.20;63.50
65408;DHT22;52017;51.230;-2.322;2022-09-09T09:15:37;21.10;63.80
65408;DHT22;52017;51.230;-2.322;2022-09-09T09:19:21;21.00;63.60
65408;DHT22;52017;51.230;-2.322;2022-09-09T09:23:27;21.00;64.30
65408;DHT22;52017;51.230;-2.322;2022-09-09T09:27:34;20.90;63.10
65408;DHT22;52017;51.230;-2.322;2022-09-09T09:31:24;20.80;64.10
65408;DHT22;52017;51.230;-2.322;2022-09-09T09:35:18;20.90;64.90
65408;DHT22;52017;51.230;-2.322;2022-09-09T09:39:02;20.90;63.80
65408;DHT22;52017;51.230;-2.322;2022-09-09T09:43:21;20.90;64.40
65408;DHT22;52017;51.230;-2.322;2022-09-09T09:47:17;20.80;64.40
65408;DHT22;52017;51.230;-2.322;2022-09-09T09:51:11;21.00;65.10
65408;DHT22;52017;51.230;-2.322;2022-09-09T09:55:05;21.00;64.50
65408;DHT22;52017;51.230;-2.322;2022-09-09T09:59:03;21.10;64.70
65408;DHT22;52017;51.230;-2.322;2022-09-09T10:03:29;21.30;65.40
65408;DHT22;52017;51.230;-2.322;2022-09-09T10:07:21;21.40;64.80
65408;DHT22;52017;51.230;-2.322;2022-09-09T10:16:18;21.80;64.10
65408;DHT22;52017;51.230;-2.322;2022-09-09T10:24:33;22.10;63.30
65408;DHT22;52017;51.230;-2.322;2022-09-09T10:32:37;22.00;62.90
65408;DHT22;52017;51.230;-2.322;2022-09-09T10:36:21;22.00;62.60
65408;DHT22;52017;51.230;-2.322;2022-09-09T10:48:51;22.10;62.60
65408;DHT22;52017;51.230;-2.322;2022-09-09T10:53:08;22.10;62.60
65408;DHT22;52017;51.230;-2.322;2022-09-09T10:57:11;22.10;62.70
65408;DHT22;52017;51.230;-2.322;2022-09-09T11:01:27;22.60;62.60
65408;DHT22;52017;51.230;-2.322;2022-09-09T11:05:51;23.00;61.40
65408;DHT22;52017;51.230;-2.322;2022-09-09T11:10:04;23.40;60.70
65408;DHT22;52017;51.230;-2.322;2022-09-09T11:18:13;24.00;60.20
65408;DHT22;52017;51.230;-2.322;2022-09-09T11:21:58;24.00;60.30
65408;DHT22;52017;51.230;-2.322;2022-09-09T11:26:02;23.70;61.10
65408;DHT22;52017;51.230;-2.322;2022-09-09T11:42:20;24.20;59.50
65408;DHT22;52017;51.230;-2.322;2022-09-09T11:46:02;24.90;58.00
65408;DHT22;52017;51.230;-2.322;2022-09-09T11:49:46;24.90;59.40
65408;DHT22;52017;51.230;-2.322;2022-09-09T11:53:28;24.70;59.10
65408;DHT22;52017;51.230;-2.322;2022-09-09T11:57:30;24.60;59.40
65408;DHT22;52017;51.230;-2.322;2022-09-09T12:01:34;25.10;56.50
65408;DHT22;52017;51.230;-2.322;2022-09-09T12:05:20;25.60;55.80
65408;DHT22;52017;51.230;-2.322;2022-09-09T12:09:33;26.70;57.80
65408;DHT22;52017;51.230;-2.322;2022-09-09T12:13:18;27.90;51.00
65408;DHT22;52017;51.230;-2.322;2022-09-09T12:33:11;29.20;50.40
65408;DHT22;52017;51.230;-2.322;2022-09-09T12:36:59;28.50;48.90
65408;DHT22;52017;51.230;-2.322;2022-09-09T12:40:56;28.40;49.10
65408;DHT22;52017;51.230;-2.322;2022-09-09T12:44:39;28.60;47.70
65408;DHT22;52017;51.230;-2.322;2022-09-09T12:48:32;29.00;48.60
65408;DHT22;52017;51.230;-2.322;2022-09-09T12:52:32;29.00;46.40
65408;DHT22;52017;51.230;-2.322;2022-09-09T12:56:31;28.10;47.10
65408;DHT22;52017;51.230;-2.322;2022-09-09T13:00:22;26.60;50.30
65408;DHT22;52017;51.230;-2.322;2022-09-09T13:04:20;25.40;52.80
65408;DHT22;52017;51.230;-2.322;2022-09-09T13:08:06;24.30;55.70
65408;DHT22;52017;51.230;-2.322;2022-09-09T13:11:55;23.40;56.90
65408;DHT22;52017;51.230;-2.322;2022-09-09T13:15:51;22.80;59.00
65408;DHT22;52017;51.230;-2.322;2022-09-09T13:19:36;22.50;61.20
65408;DHT22;52017;51.230;-2.322;2022-09-09T13:23:20;22.60;60.60
65408;DHT22;52017;51.230;-2.322;2022-09-09T13:27:19;22.60;60.80
65408;DHT22;52017;51.230;-2.322;2022-09-09T13:31:05;22.60;61.10
65408;DHT22;52017;51.230;-2.322;2022-09-09T13:34:53;22.70;61.50
65408;DHT22;52017;51.230;-2.322;2022-09-09T13:38:56;22.90;62.20
65408;DHT22;52017;51.230;-2.322;2022-09-09T13:42:40;23.20;62.10
65408;DHT22;52017;51.230;-2.322;2022-09-09T13:46:38;23.30;61.50
65408;DHT22;52017;51.230;-2.322;2022-09-09T13:50:31;23.50;61.90
65408;DHT22;52017;51.230;-2.322;2022-09-09T13:54:15;23.50;61.30
65408;DHT22;52017;51.230;-2.322;2022-09-09T13:58:03;23.60;60.80
65408;DHT22;52017;51.230;-2.322;2022-09-09T14:01:50;24.20;60.40
65408;DHT22;52017;51.230;-2.322;2022-09-09T14:05:34;24.90;59.50
65408;DHT22;52017;51.230;-2.322;2022-09-09T14:09:18;25.20;58.20
65408;DHT22;52017;51.230;-2.322;2022-09-09T14:13:00;24.90;58.80
65408;DHT22;52017;51.230;-2.322;2022-09-09T14:16:43;24.60;59.40
65408;DHT22;52017;51.230;-2.322;2022-09-09T14:20:25;24.60;59.70
65408;DHT22;52017;51.230;-2.322;2022-09-09T14:24:09;24.40;59.60
65408;DHT22;52017;51.230;-2.322;2022-09-09T14:28:07;24.10;60.20
65408;DHT22;52017;51.230;-2.322;2022-09-09T14:32:18;24.10;60.60
65408;DHT22;52017;51.230;-2.322;2022-09-09T14:36:02;24.00;60.60
65408;DHT22;52017;51.230;-2.322;2022-09-09T14:39:45;24.00;60.80
65408;DHT22;52017;51.230;-2.322;2022-09-09T14:43:29;23.90;61.00
65408;DHT22;52017;51.230;-2.322;2022-09-09T14:47:13;23.80;61.00
65408;DHT22;52017;51.230;-2.322;2022-09-09T14:51:05;23.60;60.60
65408;DHT22;52017;51.230;-2.322;2022-09-09T14:54:47;23.50;60.40
65408;DHT22;52017;51.230;-2.322;2022-09-09T14:58:35;23.30;61.10
65408;DHT22;52017;51.230;-2.322;2022-09-09T15:02:20;23.10;61.00
65408;DHT22;52017;51.230;-2.322;2022-09-09T15:06:11;23.10;60.90
65408;DHT22;52017;51.230;-2.322;2022-09-09T15:09:55;23.20;60.60
65408;DHT22;52017;51.230;-2.322;2022-09-09T15:13:44;23.30;60.90
65408;DHT22;52017;51.230;-2.322;2022-09-09T15:17:30;23.40;60.60
65408;DHT22;52017;51.230;-2.322;2022-09-09T15:21:20;23.50;60.50
65408;DHT22;52017;51.230;-2.322;2022-09-09T15:25:14;23.40;60.50
65408;DHT22;52017;51.230;-2.322;2022-09-09T15:29:07;23.30;60.90
65408;DHT22;52017;51.230;-2.322;2022-09-09T15:33:01;23.00;61.10
65408;DHT22;52017;51.230;-2.322;2022-09-09T15:36:53;22.70;61.70
65408;DHT22;52017;51.230;-2.322;2022-09-09T15:40:37;22.40;62.10
65408;DHT22;52017;51.230;-2.322;2022-09-09T15:44:19;22.10;62.70
65408;DHT22;52017;51.230;-2.322;2022-09-09T15:48:02;22.00;63.30
65408;DHT22;52017;51.230;-2.322;2022-09-09T15:51:58;21.80;63.50
65408;DHT22;52017;51.230;-2.322;2022-09-09T15:55:40;21.70;64.00
65408;DHT22;52017;51.230;-2.322;2022-09-09T15:59:23;21.70;64.00
65408;DHT22;52017;51.230;-2.322;2022-09-09T16:03:06;21.70;64.10
65408;DHT22;52017;51.230;-2.322;2022-09-09T16:06:49;21.70;64.20
65408;DHT22;52017;51.230;-2.322;2022-09-09T16:10:31;21.70;64.30
65408;DHT22;52017;51.230;-2.322;2022-09-09T16:14:14;21.60;64.50
65408;DHT22;52017;51.230;-2.322;2022-09-09T16:17:57;21.60;64.50
65408;DHT22;52017;51.230;-2.322;2022-09-09T16:21:42;21.60;64.70
65408;DHT22;52017;51.230;-2.322;2022-09-09T16:25:24;21.70;64.80
65408;DHT22;52017;51.230;-2.322;2022-09-09T16:29:06;21.70;64.70
65408;DHT22;52017;51.230;-2.322;2022-09-09T16:32:48;21.70;64.80
65408;DHT22;52017;51.230;-2.322;2022-09-09T16:36:33;21.70;64.90
65408;DHT22;52017;51.230;-2.322;2022-09-09T16:40:18;21.60;65.00
65408;DHT22;52017;51.230;-2.322;2022-09-09T16:44:02;21.60;65.20
65408;DHT22;52017;51.230;-2.322;2022-09-09T16:47:44;21.50;65.30
65408;DHT22;52017;51.230;-2.322;2022-09-09T16:51:29;21.40;65.60
65408;DHT22;52017;51.230;-2.322;2022-09-09T16:55:11;21.30;65.90
65408;DHT22;52017;51.230;-2.322;2022-09-09T16:58:59;21.20;66.20
65408;DHT22;52017;51.230;-2.322;2022-09-09T17:02:42;21.30;66.50
65408;DHT22;52017;51.230;-2.322;2022-09-09T17:06:25;21.30;66.50
65408;DHT22;52017;51.230;-2.322;2022-09-09T17:10:07;21.30;66.50
65408;DHT22;52017;51.230;-2.322;2022-09-09T17:13:50;21.40;66.60
65408;DHT22;52017;51.230;-2.322;2022-09-09T17:17:34;21.30;66.70
65408;DHT22;52017;51.230;-2.322;2022-09-09T17:21:22;21.20;67.00
65408;DHT22;52017;51.230;-2.322;2022-09-09T17:25:05;21.10;67.20
65408;DHT22;52017;51.230;-2.322;2022-09-09T17:28:47;21.00;67.50
65408;DHT22;52017;51.230;-2.322;2022-09-09T17:32:29;21.00;67.70
65408;DHT22;52017;51.230;-2.322;2022-09-09T17:36:18;21.10;67.70
65408;DHT22;52017;51.230;-2.322;2022-09-09T17:40:00;21.00;67.80
65408;DHT22;52017;51.230;-2.322;2022-09-09T17:43:44;20.90;67.80
65408;DHT22;52017;51.230;-2.322;2022-09-09T17:47:27;20.70;68.00
65408;DHT22;52017;51.230;-2.322;2022-09-09T17:51:12;20.60;68.20
65408;DHT22;52017;51.230;-2.322;2022-09-09T17:54:55;20.50;68.60
65408;DHT22;52017;51.230;-2.322;2022-09-09T17:58:39;20.30;68.80
65408;DHT22;52017;51.230;-2.322;2022-09-09T18:02:21;20.10;69.00
65408;DHT22;52017;51.230;-2.322;2022-09-09T18:06:05;20.00;69.30
65408;DHT22;52017;51.230;-2.322;2022-09-09T18:09:47;20.00;69.50
65408;DHT22;52017;51.230;-2.322;2022-09-09T18:13:30;19.90;69.70
65408;DHT22;52017;51.230;-2.322;2022-09-09T18:17:13;19.80;69.90
65408;DHT22;52017;51.230;-2.322;2022-09-09T18:21:06;19.90;70.10
65408;DHT22;52017;51.230;-2.322;2022-09-09T18:24:48;19.90;70.80
65408;DHT22;52017;51.230;-2.322;2022-09-09T18:28:31;19.80;70.10
65408;DHT22;52017;51.230;-2.322;2022-09-09T18:32:12;19.70;70.60
65408;DHT22;52017;51.230;-2.322;2022-09-09T18:35:55;19.70;70.50
65408;DHT22;52017;51.230;-2.322;2022-09-09T18:39:38;19.70;70.70
65408;DHT22;52017;51.230;-2.322;2022-09-09T18:43:20;19.60;70.80
65408;DHT22;52017;51.230;-2.322;2022-09-09T18:47:02;19.60;70.90
65408;DHT22;52017;51.230;-2.322;2022-09-09T18:50:44;19.50;71.30
65408;DHT22;52017;51.230;-2.322;2022-09-09T18:54:28;19.50;71.50
65408;DHT22;52017;51.230;-2.322;2022-09-09T18:58:10;19.40;71.70
65408;DHT22;52017;51.230;-2.322;2022-09-09T19:01:54;19.40;71.80
65408;DHT22;52017;51.230;-2.322;2022-09-09T19:05:37;19.30;72.00
65408;DHT22;52017;51.230;-2.322;2022-09-09T19:09:19;19.30;72.30
65408;DHT22;52017;51.230;-2.322;2022-09-09T19:13:01;19.30;72.60
65408;DHT22;52017;51.230;-2.322;2022-09-09T19:16:43;19.30;72.70
65408;DHT22;52017;51.230;-2.322;2022-09-09T19:20:26;19.30;72.90
65408;DHT22;52017;51.230;-2.322;2022-09-09T19:24:17;19.30;73.20
65408;DHT22;52017;51.230;-2.322;2022-09-09T19:27:59;19.30;74.20
65408;DHT22;52017;51.230;-2.322;2022-09-09T19:31:42;19.20;73.50
65408;DHT22;52017;51.230;-2.322;2022-09-09T19:35:45;19.20;73.60
65408;DHT22;52017;51.230;-2.322;2022-09-09T19:39:27;19.10;73.80
65408;DHT22;52017;51.230;-2.322;2022-09-09T19:43:09;19.10;73.90
65408;DHT22;52017;51.230;-2.322;2022-09-09T19:46:51;19.10;74.00
65408;DHT22;52017;51.230;-2.322;2022-09-09T19:50:34;19.10;74.10
65408;DHT22;52017;51.230;-2.322;2022-09-09T19:54:17;19.10;74.20
65408;DHT22;52017;51.230;-2.322;2022-09-09T19:57:59;19.10;74.30
65408;DHT22;52017;51.230;-2.322;2022-09-09T20:01:43;19.00;74.50
65408;DHT22;52017;51.230;-2.322;2022-09-09T20:05:25;19.00;74.60
65408;DHT22;52017;51.230;-2.322;2022-09-09T20:09:11;19.00;74.80
65408;DHT22;52017;51.230;-2.322;2022-09-09T20:12:55;19.00;75.00
65408;DHT22;52017;51.230;-2.322;2022-09-09T20:16:37;18.90;75.00
65408;DHT22;52017;51.230;-2.322;2022-09-09T20:20:19;18.80;75.10
65408;DHT22;52017;51.230;-2.322;2022-09-09T20:24:04;18.70;75.30
65408;DHT22;52017;51.230;-2.322;2022-09-09T20:27:46;18.60;75.40
65408;DHT22;52017;51.230;-2.322;2022-09-09T20:31:31;18.60;75.50
65408;DHT22;52017;51.230;-2.322;2022-09-09T20:35:17;18.50;75.60
65408;DHT22;52017;51.230;-2.322;2022-09-09T20:39:10;18.50;75.60
65408;DHT22;52017;51.230;-2.322;2022-09-09T20:42:52;18.50;75.70
65408;DHT22;52017;51.230;-2.322;2022-09-09T20:46:36;18.50;75.70
65408;DHT22;52017;51.230;-2.322;2022-09-09T20:50:18;18.40;75.80
65408;DHT22;52017;51.230;-2.322;2022-09-09T20:54:05;18.30;75.90
65408;DHT22;52017;51.230;-2.322;2022-09-09T20:57:47;18.20;76.30
65408;DHT22;52017;51.230;-2.322;2022-09-09T21:01:29;18.20;76.10
65408;DHT22;52017;51.230;-2.322;2022-09-09T21:05:11;18.10;76.20
65408;DHT22;52017;51.230;-2.322;2022-09-09T21:08:53;18.00;76.40
65408;DHT22;52017;51.230;-2.322;2022-09-09T21:12:36;18.00;76.60
65408;DHT22;52017;51.230;-2.322;2022-09-09T21:16:18;18.00;76.60
65408;DHT22;52017;51.230;-2.322;2022-09-09T21:20:00;17.90;76.90
65408;DHT22;52017;51.230;-2.322;2022-09-09T21:23:42;17.90;76.90
65408;DHT22;52017;51.230;-2.322;2022-09-09T21:27:24;17.80;77.10
65408;DHT22;52017;51.230;-2.322;2022-09-09T21:31:06;17.80;77.20
65408;DHT22;52017;51.230;-2.322;2022-09-09T21:34:53;17.70;77.20
65408;DHT22;52017;51.230;-2.322;2022-09-09T21:38:35;17.70;77.30
65408;DHT22;52017;51.230;-2.322;2022-09-09T21:42:18;17.70;77.40
65408;DHT22;52017;51.230;-2.322;2022-09-09T21:46:04;17.70;77.60
65408;DHT22;52017;51.230;-2.322;2022-09-09T21:49:46;17.60;77.80
65408;DHT22;52017;51.230;-2.322;2022-09-09T21:53:28;17.60;77.80
65408;DHT22;52017;51.230;-2.322;2022-09-09T21:57:10;17.70;77.70
65408;DHT22;52017;51.230;-2.322;2022-09-09T22:00:54;17.60;77.70
65408;DHT22;52017;51.230;-2.322;2022-09-09T22:04:36;17.70;77.70
65408;DHT22;52017;51.230;-2.322;2022-09-09T22:08:18;17.70;77.70
65408;DHT22;52017;51.230;-2.322;2022-09-09T22:12:01;17.70;77.60
65408;DHT22;52017;51.230;-2.322;2022-09-09T22:15:44;17.70;77.60
65408;DHT22;52017;51.230;-2.322;2022-09-09T22:19:26;17.70;77.50
65408;DHT22;52017;51.230;-2.322;2022-09-09T22:23:10;17.70;77.50
65408;DHT22;52017;51.230;-2.322;2022-09-09T22:26:52;17.60;77.60
65408;DHT22;52017;51.230;-2.322;2022-09-09T22:30:36;17.60;77.60
65408;DHT22;52017;51.230;-2.322;2022-09-09T22:34:19;17.50;77.60
65408;DHT22;52017;51.230;-2.322;2022-09-09T22:38:01;17.50;77.60
65408;DHT22;52017;51.230;-2.322;2022-09-09T22:41:44;17.50;77.70
65408;DHT22;52017;51.230;-2.322;2022-09-09T22:45:26;17.40;77.80
65408;DHT22;52017;51.230;-2.322;2022-09-09T22:49:09;17.30;77.80
65408;DHT22;52017;51.230;-2.322;2022-09-09T22:52:51;17.20;77.80
65408;DHT22;52017;51.230;-2.322;2022-09-09T22:56:33;17.20;77.80
65408;DHT22;52017;51.230;-2.322;2022-09-09T23:00:15;17.10;77.90
65408;DHT22;52017;51.230;-2.322;2022-09-09T23:03:59;17.10;78.00
65408;DHT22;52017;51.230;-2.322;2022-09-09T23:07:43;17.00;78.10
65408;DHT22;52017;51.230;-2.322;2022-09-09T23:11:28;17.00;78.10
65408;DHT22;52017;51.230;-2.322;2022-09-09T23:15:12;16.90;78.20
65408;DHT22;52017;51.230;-2.322;2022-09-09T23:18:55;16.90;78.10
65408;DHT22;52017;51.230;-2.322;2022-09-09T23:22:37;16.80;78.30
65408;DHT22;52017;51.230;-2.322;2022-09-09T23:26:22;16.80;78.30
65408;DHT22;52017;51.230;-2.322;2022-09-09T23:30:05;16.70;78.40
65408;DHT22;52017;51.230;-2.322;2022-09-09T23:33:49;16.70;78.40
65408;DHT22;52017;51.230;-2.322;2022-09-09T23:37:33;16.60;78.40
65408;DHT22;52017;51.230;-2.322;2022-09-09T23:41:17;16.60;78.50
65408;DHT22;52017;51.230;-2.322;2022-09-09T23:45:01;16.50;78.60
65408;DHT22;52017;51.230;-2.322;2022-09-09T23:48:43;16.50;78.60
65408;DHT22;52017;51.230;-2.322;2022-09-09T23:52:25;16.50;78.60
65408;DHT22;52017;51.230;-2.322;2022-09-09T23:56:07;16.50;78.60
65408;DHT22;52017;51.230;-2.322;2022-09-09T23:59:50;16.50;78.60
